Overview Statistics Trail Chart Weather Telemetry Raw packets
 

This is the latest recevied weather packets stored in our database for station/object EB1TR-13. If no packets are shown the sender has not sent any weather packets the latest 10 day(s).

<< 1 2 3 4 5 >>
Time Temp. Humidity Pressure Rain* Wind** Luminosity Snow
1788544691 22.22° C 88% 1023 hPa 0 mm - 0 W/m² -
1788543791 22.22° C 87% 1023 hPa 0 mm - 0 W/m² -
1788542891 22.22° C 87% 1023 hPa 0 mm - 0 W/m² -
1788541991 22.22° C 87% 1023 hPa 0 mm - 0 W/m² -
1788541091 22.22° C 89% 1022 hPa 0 mm - 0 W/m² -
1788540191 22.22° C 90% 1022 hPa 0 mm - 0 W/m² -
1788539291 22.22° C 90% 1023 hPa 0 mm - 0 W/m² -
1788538391 22.22° C 90% 1023 hPa 0 mm - 0 W/m² -
1788537491 22.22° C 89% 1022 hPa 0 mm - 0 W/m² -
1788536591 22.22° C 89% 1022 hPa 0 mm - 0 W/m² -
1788535691 22.78° C 89% 1023 hPa 0 mm - 0 W/m² -
1788534791 22.78° C 89% 1023 hPa 0 mm - 0 W/m² -
1788533891 22.78° C 88% 1022 hPa 0 mm - 0 W/m² -
1788532991 23.33° C 88% 1022 hPa 0 mm - 0 W/m² -
1788532091 23.33° C 87% 1022 hPa 0 mm - 0 W/m² -
1788531191 23.33° C 87% 1022 hPa 0 mm - 0 W/m² -
1788530291 23.33° C 88% 1022 hPa 0 mm - 0 W/m² -
1788529391 23.33° C 89% 1022 hPa 0 mm - 0 W/m² -
1788528491 23.33° C 89% 1022 hPa 0 mm - 0 W/m² -
1788527591 22.78° C 89% 1022 hPa 0 mm - 0 W/m² -
1788526691 23.33° C 88% 1021 hPa 0 mm - 0 W/m² -
1788525791 23.33° C 86% 1022 hPa 0 mm - 0 W/m² -
1788524891 24.44° C 80% 1022 hPa 0 mm - 0 W/m² -
1788523991 25.56° C 70% 1021 hPa 0 mm - 0 W/m² -
1788523091 25.56° C 70% 1022 hPa 0 mm - 0 W/m² -

* Rain latest hour (hover to see other rain measurements)
** Current wind speed in m/s (hover to see current wind gust speed)